Time;durP1;ratioP1;P1;durP2;ratioP2;P2;SDS_P1;SDS_P2;PMS_P1;PMS_P2;Temp;Humidity;BMP_temperature;BMP_pressure;BME280_temperature;BME280_humidity;BME280_pressure;Samples;Min_cycle;Max_cycle;Signal;HPM_P1;HPM_P2
2023/10/13 00:00:42;;;;;;;;;;;19.90;1.00;;;;;;4937042;29;19931;-53
2023/10/13 00:03:14;;;;;;;;;;;19.90;1.00;;;;;;4937280;29;20378;-54
2023/10/13 00:05:42;;;;;;;;;;;19.90;1.00;;;;;;4937131;29;20017;-54
2023/10/13 00:08:09;;;;;;;;;;;19.80;1.00;;;;;;4937019;29;20030;-54
2023/10/13 00:10:36;;;;;;;;;;;19.80;1.00;;;;;;4936663;29;20388;-54
2023/10/13 00:16:09;;;;;;;;;;;19.90;1.00;;;;;;4936784;29;20010;-54
2023/10/13 00:18:33;;;;;;;;;;;19.80;1.00;;;;;;4936818;29;19934;-51
2023/10/13 00:21:03;;;;;;;;;;;19.80;1.00;;;;;;4936696;29;19954;-51
2023/10/13 00:23:32;;;;;;;;;;;19.80;1.00;;;;;;4936869;29;19950;-53
2023/10/13 00:25:59;;;;;;;;;;;19.80;1.00;;;;;;4936454;29;20392;-53
2023/10/13 00:28:34;;;;;;;;;;;19.80;1.00;;;;;;4936605;29;20444;-53
2023/10/13 00:31:10;;;;;;;;;;;19.80;1.00;;;;;;4919146;29;19927;-54
2023/10/13 00:33:46;;;;;;;;;;;19.80;1.00;;;;;;4919380;29;19926;-55
2023/10/13 00:36:17;;;;;;;;;;;19.80;1.00;;;;;;4936663;29;19982;-53
2023/10/13 00:38:48;;;;;;;;;;;19.80;1.00;;;;;;4936379;29;19969;-52
2023/10/13 00:41:16;;;;;;;;;;;19.80;1.00;;;;;;4919120;29;19927;-55
2023/10/13 00:44:04;;;;;;;;;;;19.80;1.00;;;;;;4919367;29;20466;-53
2023/10/13 00:46:33;;;;;;;;;;;19.80;1.00;;;;;;4936186;29;19933;-54
2023/10/13 00:49:01;;;;;;;;;;;19.80;1.00;;;;;;4936186;29;19927;-55
2023/10/13 00:51:47;;;;;;;;;;;19.80;1.00;;;;;;4918864;29;20380;-54
2023/10/13 00:54:16;;;;;;;;;;;19.80;1.00;;;;;;4936182;29;19977;-54
2023/10/13 00:56:57;;;;;;;;;;;19.80;1.00;;;;;;4936399;29;19933;-53
2023/10/13 00:59:25;;;;;;;;;;;19.80;1.00;;;;;;4918875;29;19927;-53
2023/10/13 01:01:55;;;;;;;;;;;19.80;1.00;;;;;;4935680;29;19927;-54
2023/10/13 01:04:27;;;;;;;;;;;19.80;1.00;;;;;;4936062;29;19933;-53
2023/10/13 01:06:54;;;;;;;;;;;19.80;1.00;;;;;;4935943;29;19927;-54
2023/10/13 01:09:24;;;;;;;;;;;19.70;1.00;;;;;;4918116;29;19950;-54
2023/10/13 01:11:55;;;;;;;;;;;19.80;1.00;;;;;;4918605;29;19934;-54
2023/10/13 01:14:23;;;;;;;;;;;19.80;1.00;;;;;;4935687;29;19927;-52
2023/10/13 01:16:55;;;;;;;;;;;19.80;1.00;;;;;;4918791;29;19927;-53
2023/10/13 01:19:24;;;;;;;;;;;19.80;1.00;;;;;;4935708;29;20380;-53
2023/10/13 01:22:02;;;;;;;;;;;19.70;1.00;;;;;;4918330;29;20295;-54
2023/10/13 01:24:31;;;;;;;;;;;19.70;1.00;;;;;;4935751;29;19982;-54
2023/10/13 01:27:07;;;;;;;;;;;19.80;1.00;;;;;;4918541;29;20021;-54
2023/10/13 01:29:34;;;;;;;;;;;19.80;1.00;;;;;;4918780;29;19927;-54
2023/10/13 01:32:00;;;;;;;;;;;19.70;1.00;;;;;;4918350;29;19927;-54
2023/10/13 01:34:28;;;;;;;;;;;19.70;1.00;;;;;;4919033;29;20331;-53
2023/10/13 01:36:55;;;;;;;;;;;19.70;1.00;;;;;;4918578;29;19931;-55
2023/10/13 01:39:26;;;;;;;;;;;19.70;1.00;;;;;;4950089;28;19974;-53
2023/10/13 01:41:56;;;;;;;;;;;19.70;1.00;;;;;;4935497;29;20277;-54
2023/10/13 01:44:30;;;;;;;;;;;19.70;1.00;;;;;;4918397;29;19927;-53
2023/10/13 01:47:06;;;;;;;;;;;19.70;1.00;;;;;;4937157;29;20312;-55
2023/10/13 01:49:41;;;;;;;;;;;19.70;1.00;;;;;;4923547;29;19931;-53
2023/10/13 01:52:15;;;;;;;;;;;19.70;1.00;;;;;;4940318;29;19996;-54
2023/10/13 01:54:46;;;;;;;;;;;19.70;1.00;;;;;;4920228;29;19931;-50
2023/10/13 01:57:18;;;;;;;;;;;19.70;1.00;;;;;;4918016;29;19927;-53
2023/10/13 01:59:49;;;;;;;;;;;19.70;1.00;;;;;;4917910;29;19927;-51
2023/10/13 02:02:28;;;;;;;;;;;19.70;1.00;;;;;;4917898;29;19930;-49
2023/10/13 02:04:57;;;;;;;;;;;19.80;1.00;;;;;;4918129;29;20018;-50
2023/10/13 02:07:29;;;;;;;;;;;19.70;1.00;;;;;;4918063;29;20381;-49
2023/10/13 02:09:57;;;;;;;;;;;19.70;1.00;;;;;;4917814;29;19986;-51
2023/10/13 02:12:42;;;;;;;;;;;19.70;1.00;;;;;;4935110;29;20530;-51
2023/10/13 02:15:20;;;;;;;;;;;19.70;1.00;;;;;;4935096;29;19926;-49
2023/10/13 02:17:51;;;;;;;;;;;19.70;1.00;;;;;;4935332;29;20041;-50
2023/10/13 02:20:22;;;;;;;;;;;19.70;1.00;;;;;;4912975;29;19928;-50
2023/10/13 02:22:49;;;;;;;;;;;19.70;1.00;;;;;;4902604;29;20381;-53
2023/10/13 02:25:34;;;;;;;;;;;19.70;1.00;;;;;;4919945;29;19973;-54
2023/10/13 02:28:02;;;;;;;;;;;19.70;1.00;;;;;;4915228;29;19927;-49
2023/10/13 02:30:29;;;;;;;;;;;19.70;1.00;;;;;;4921408;29;19966;-51
2023/10/13 02:32:57;;;;;;;;;;;19.70;1.00;;;;;;4921311;29;20277;-53
2023/10/13 02:35:30;;;;;;;;;;;19.70;1.00;;;;;;4921624;29;19927;-50
2023/10/13 02:38:05;;;;;;;;;;;19.70;1.00;;;;;;4921608;29;19930;-51
2023/10/13 02:40:35;;;;;;;;;;;19.70;1.00;;;;;;4921450;29;20004;-54
2023/10/13 02:43:03;;;;;;;;;;;19.70;1.00;;;;;;4921319;29;19950;-50
2023/10/13 02:45:32;;;;;;;;;;;19.70;1.00;;;;;;4938409;29;19927;-52
2023/10/13 02:48:17;;;;;;;;;;;19.70;1.00;;;;;;4921271;29;20034;-52
2023/10/13 02:50:45;;;;;;;;;;;19.70;1.00;;;;;;4938272;29;19964;-49
2023/10/13 02:53:12;;;;;;;;;;;19.70;1.00;;;;;;4921197;29;19927;-50
2023/10/13 02:55:52;;;;;;;;;;;19.70;1.00;;;;;;4938382;29;20368;-52
2023/10/13 02:58:20;;;;;;;;;;;19.70;1.00;;;;;;4921207;29;19965;-50
2023/10/13 03:00:47;;;;;;;;;;;19.70;1.00;;;;;;4920924;29;20463;-49
2023/10/13 03:03:18;;;;;;;;;;;19.70;1.00;;;;;;4938313;29;19927;-50
2023/10/13 03:05:45;;;;;;;;;;;19.70;1.00;;;;;;4938291;29;19934;-49
2023/10/13 03:08:17;;;;;;;;;;;19.70;1.00;;;;;;4920733;29;19927;-51
2023/10/13 03:10:49;;;;;;;;;;;19.70;1.00;;;;;;4936869;29;19989;-51
2023/10/13 03:13:16;;;;;;;;;;;19.70;1.00;;;;;;4903979;29;19970;-49
2023/10/13 03:15:47;;;;;;;;;;;19.70;1.00;;;;;;4937039;29;20333;-51
2023/10/13 03:18:18;;;;;;;;;;;19.70;1.00;;;;;;4936958;29;19952;-53
2023/10/13 03:20:50;;;;;;;;;;;19.70;1.00;;;;;;4919393;29;20373;-50
2023/10/13 03:23:17;;;;;;;;;;;19.70;1.00;;;;;;4936734;29;19977;-49
2023/10/13 03:25:43;;;;;;;;;;;19.70;1.00;;;;;;4919929;29;20281;-50
2023/10/13 03:28:13;;;;;;;;;;;19.70;1.00;;;;;;4920090;29;19933;-50
2023/10/13 03:30:44;;;;;;;;;;;19.70;1.00;;;;;;4936324;29;20021;-48
2023/10/13 03:33:14;;;;;;;;;;;19.70;1.00;;;;;;4936431;29;19934;-51
2023/10/13 03:35:50;;;;;;;;;;;19.70;1.00;;;;;;4936833;29;19930;-49
2023/10/13 03:38:20;;;;;;;;;;;19.70;1.00;;;;;;4936952;29;19934;-49
2023/10/13 03:40:56;;;;;;;;;;;19.70;1.00;;;;;;4936872;29;19930;-52
2023/10/13 03:43:23;;;;;;;;;;;19.70;1.00;;;;;;4918605;29;19927;-50
2023/10/13 03:46:00;;;;;;;;;;;19.70;1.00;;;;;;4936465;29;19931;-52
2023/10/13 03:48:28;;;;;;;;;;;19.70;1.00;;;;;;4936564;29;20406;-50
2023/10/13 03:51:03;;;;;;;;;;;19.70;1.00;;;;;;4936581;29;19970;-53
2023/10/13 03:53:33;;;;;;;;;;;19.70;1.00;;;;;;4936539;29;20441;-51
2023/10/13 03:56:26;;;;;;;;;;;19.70;1.00;;;;;;4936431;29;19926;-51
2023/10/13 03:59:01;;;;;;;;;;;19.70;1.00;;;;;;4935646;29;19931;-50
2023/10/13 04:01:43;;;;;;;;;;;19.70;1.00;;;;;;4922232;29;19986;-49
2023/10/13 04:04:12;;;;;;;;;;;19.70;1.00;;;;;;4929772;29;19954;-50
2023/10/13 04:07:38;;;;;;;;;;;19.70;1.00;;;;;;4936375;29;19931;-53
2023/10/13 04:13:49;;;;;;;;;;;19.70;1.00;;;;;;4924415;29;20025;-52
2023/10/13 04:17:40;;;;;;;;;;;19.70;1.00;;;;;;4936914;29;19926;-50
2023/10/13 04:41:22;;;;;;;;;;;19.70;1.00;;;;;;4936201;29;20013;-49
2023/10/13 04:43:56;;;;;;;;;;;19.70;1.00;;;;;;4935646;29;19927;-49
2023/10/13 04:46:39;;;;;;;;;;;19.70;1.00;;;;;;4936482;29;19927;-49
2023/10/13 04:49:28;;;;;;;;;;;19.60;1.00;;;;;;4936186;29;19934;-53
2023/10/13 04:52:12;;;;;;;;;;;19.70;1.00;;;;;;4935996;29;19927;-49
2023/10/13 05:02:43;;;;;;;;;;;19.70;1.00;;;;;;4923696;29;20017;-51
2023/10/13 06:29:55;;;;;;;;;;;19.70;1.00;;;;;;4938616;29;19977;-55
2023/10/13 06:32:26;;;;;;;;;;;19.70;1.00;;;;;;4938502;29;19927;-49
2023/10/13 06:34:57;;;;;;;;;;;19.70;1.00;;;;;;4937437;29;20492;-52
2023/10/13 06:39:52;;;;;;;;;;;19.70;1.00;;;;;;4936982;29;20399;-54
2023/10/13 06:42:19;;;;;;;;;;;19.70;1.00;;;;;;4937482;29;20258;-54
2023/10/13 06:44:46;;;;;;;;;;;19.60;1.00;;;;;;4937671;29;19933;-50
2023/10/13 06:47:13;;;;;;;;;;;19.70;1.00;;;;;;4937587;29;19931;-54
2023/10/13 06:49:43;;;;;;;;;;;19.70;1.00;;;;;;4936884;29;19934;-54
2023/10/13 06:52:10;;;;;;;;;;;19.70;1.00;;;;;;4938149;29;19927;-54
2023/10/13 06:54:39;;;;;;;;;;;19.70;1.00;;;;;;4938031;29;19933;-55
2023/10/13 06:57:10;;;;;;;;;;;19.70;1.00;;;;;;4937953;29;19927;-54
2023/10/13 06:59:40;;;;;;;;;;;19.70;1.00;;;;;;4938113;29;19927;-52
2023/10/13 07:02:09;;;;;;;;;;;19.70;1.00;;;;;;4937663;29;19927;-54
2023/10/13 07:05:11;;;;;;;;;;;19.60;1.00;;;;;;4938320;29;20398;-51
2023/10/13 07:07:39;;;;;;;;;;;19.70;1.00;;;;;;4937137;29;19937;-52
2023/10/13 07:10:09;;;;;;;;;;;19.60;1.00;;;;;;4937468;29;19927;-55
2023/10/13 07:12:37;;;;;;;;;;;19.70;1.00;;;;;;4937889;29;19927;-54
2023/10/13 07:15:27;;;;;;;;;;;19.70;1.00;;;;;;4937925;29;19986;-51
2023/10/13 07:17:55;;;;;;;;;;;19.70;1.00;;;;;;4937606;29;19927;-50
2023/10/13 07:23:03;;;;;;;;;;;19.60;1.00;;;;;;4937631;29;20337;-51
2023/10/13 07:25:32;;;;;;;;;;;19.70;1.00;;;;;;4938160;29;19927;-51
2023/10/13 07:28:00;;;;;;;;;;;19.70;1.00;;;;;;4937532;29;20440;-50
2023/10/13 07:30:27;;;;;;;;;;;19.70;1.00;;;;;;4937804;29;20017;-53
2023/10/13 07:32:59;;;;;;;;;;;19.70;1.00;;;;;;4937405;29;19933;-52
2023/10/13 07:35:26;;;;;;;;;;;19.70;1.00;;;;;;4937602;29;19966;-53
2023/10/13 07:37:53;;;;;;;;;;;19.70;1.00;;;;;;4919793;29;19938;-53
2023/10/13 07:40:50;;;;;;;;;;;19.70;1.00;;;;;;4935279;29;19942;-53
2023/10/13 07:43:10;;;;;;;;;;;19.60;1.00;;;;;;4934877;29;20388;-50
2023/10/13 07:45:37;;;;;;;;;;;19.70;1.00;;;;;;4935840;29;19934;-52
2023/10/13 07:48:19;;;;;;;;;;;19.70;1.00;;;;;;4937236;29;20025;-55
2023/10/13 07:50:48;;;;;;;;;;;19.70;1.00;;;;;;4937374;29;19954;-50
2023/10/13 07:53:24;;;;;;;;;;;19.70;1.00;;;;;;4936878;29;19927;-54
2023/10/13 07:56:02;;;;;;;;;;;19.70;1.00;;;;;;4937166;29;19960;-54
2023/10/13 07:58:31;;;;;;;;;;;19.60;1.00;;;;;;4937145;29;20344;-52
2023/10/13 08:03:34;;;;;;;;;;;19.70;1.00;;;;;;4936770;29;20021;-53
2023/10/13 08:06:19;;;;;;;;;;;19.70;1.00;;;;;;4937153;29;20278;-51
2023/10/13 08:08:53;;;;;;;;;;;19.70;1.00;;;;;;4937051;29;19981;-53
2023/10/13 08:13:54;;;;;;;;;;;19.70;1.00;;;;;;4936961;29;20014;-53
2023/10/13 08:16:48;;;;;;;;;;;19.70;1.00;;;;;;4936831;29;19965;-49
2023/10/13 08:19:16;;;;;;;;;;;19.70;1.00;;;;;;4935696;29;20459;-50
2023/10/13 08:21:51;;;;;;;;;;;19.70;1.00;;;;;;4936388;29;19966;-50
2023/10/13 08:27:49;;;;;;;;;;;19.70;1.00;;;;;;4894575;29;19926;-52
2023/10/13 08:30:33;;;;;;;;;;;19.70;1.00;;;;;;4936340;29;19926;-51
2023/10/13 08:33:16;;;;;;;;;;;19.70;1.00;;;;;;4936461;29;19970;-53
2023/10/13 08:36:18;;;;;;;;;;;19.70;1.00;;;;;;4936753;29;19982;-52
2023/10/13 08:38:51;;;;;;;;;;;19.70;1.00;;;;;;4936338;29;20021;-52
2023/10/13 08:43:52;;;;;;;;;;;19.70;1.00;;;;;;4936482;29;19930;-51
2023/10/13 08:46:29;;;;;;;;;;;19.70;1.00;;;;;;4925282;29;19935;-50
2023/10/13 08:49:15;;;;;;;;;;;19.70;1.00;;;;;;4917112;29;19983;-54
2023/10/13 08:52:05;;;;;;;;;;;19.70;1.00;;;;;;4930280;29;19926;-54
2023/10/13 08:54:45;;;;;;;;;;;19.70;1.00;;;;;;4936294;29;20353;-53
2023/10/13 08:57:33;;;;;;;;;;;19.70;1.00;;;;;;4936058;29;20021;-53
2023/10/13 09:00:27;;;;;;;;;;;19.70;1.00;;;;;;4928153;29;20304;-54
2023/10/13 09:06:00;;;;;;;;;;;19.70;1.00;;;;;;4935962;29;19931;-51
2023/10/13 09:08:35;;;;;;;;;;;19.70;1.00;;;;;;4935787;29;19974;-54
2023/10/13 09:11:11;;;;;;;;;;;19.80;1.00;;;;;;4935633;29;19950;-54
2023/10/13 09:13:44;;;;;;;;;;;19.70;1.00;;;;;;4935829;29;20010;-52
2023/10/13 09:16:17;;;;;;;;;;;19.80;1.00;;;;;;4935661;29;19927;-54
2023/10/13 09:18:47;;;;;;;;;;;19.70;1.00;;;;;;4935642;29;20063;-53
2023/10/13 09:21:47;;;;;;;;;;;19.80;1.00;;;;;;4935038;29;20447;-54
2023/10/13 09:24:29;;;;;;;;;;;19.80;1.00;;;;;;4935429;29;19927;-54
2023/10/13 09:27:01;;;;;;;;;;;19.70;1.00;;;;;;4935626;29;19931;-51
2023/10/13 09:29:29;;;;;;;;;;;19.80;1.00;;;;;;4935072;29;19930;-49
2023/10/13 09:32:00;;;;;;;;;;;19.80;1.00;;;;;;4935401;29;20376;-55
2023/10/13 09:34:31;;;;;;;;;;;19.80;1.00;;;;;;4935490;29;20353;-55
2023/10/13 09:37:03;;;;;;;;;;;19.80;1.00;;;;;;4934992;29;19927;-50
2023/10/13 09:39:40;;;;;;;;;;;19.80;1.00;;;;;;4935389;29;20397;-53
2023/10/13 09:42:10;;;;;;;;;;;19.80;1.00;;;;;;4935255;29;19933;-54
2023/10/13 09:44:40;;;;;;;;;;;19.70;1.00;;;;;;4935506;29;19978;-50
2023/10/13 09:47:17;;;;;;;;;;;19.80;1.00;;;;;;4935511;29;19977;-53
2023/10/13 09:49:45;;;;;;;;;;;19.80;1.00;;;;;;4935303;29;20278;-51
2023/10/13 09:52:25;;;;;;;;;;;19.80;1.00;;;;;;4935191;29;19934;-51
2023/10/13 09:54:59;;;;;;;;;;;19.80;1.00;;;;;;4935482;29;19926;-53
2023/10/13 09:57:34;;;;;;;;;;;19.80;1.00;;;;;;4935392;29;20560;-51
2023/10/13 10:00:07;;;;;;;;;;;19.80;1.00;;;;;;4935288;29;19926;-54
2023/10/13 10:02:44;;;;;;;;;;;19.80;1.00;;;;;;4935293;29;19931;-51
2023/10/13 10:05:21;;;;;;;;;;;19.80;1.00;;;;;;4935314;29;19991;-54
2023/10/13 10:07:56;;;;;;;;;;;19.80;1.00;;;;;;4935283;29;19933;-49
2023/10/13 10:10:26;;;;;;;;;;;19.80;1.00;;;;;;4935214;29;20276;-53
2023/10/13 10:13:00;;;;;;;;;;;19.80;1.00;;;;;;4935223;29;20333;-49
2023/10/13 10:15:33;;;;;;;;;;;19.80;1.00;;;;;;4935145;29;19935;-51
2023/10/13 10:18:04;;;;;;;;;;;19.80;1.00;;;;;;4935324;29;20017;-55
2023/10/13 10:20:45;;;;;;;;;;;19.80;1.00;;;;;;4934961;29;19927;-55
2023/10/13 10:23:36;;;;;;;;;;;19.80;1.00;;;;;;4934954;29;19927;-53
2023/10/13 10:26:11;;;;;;;;;;;19.80;1.00;;;;;;4935368;29;20017;-55
2023/10/13 10:28:39;;;;;;;;;;;19.80;1.00;;;;;;4935033;29;19926;-54
2023/10/13 10:31:19;;;;;;;;;;;19.80;1.00;;;;;;4934854;29;19926;-55
2023/10/13 10:33:50;;;;;;;;;;;19.80;1.00;;;;;;4935096;29;19926;-52
2023/10/13 10:36:29;;;;;;;;;;;19.80;1.00;;;;;;4934923;29;20365;-54
2023/10/13 10:38:59;;;;;;;;;;;19.80;1.00;;;;;;4934977;29;20312;-49
2023/10/13 10:42:15;;;;;;;;;;;19.80;1.00;;;;;;4935152;29;20277;-52
2023/10/13 10:44:22;;;;;;;;;;;19.80;1.00;;;;;;4909364;29;19927;-52
2023/10/13 10:46:56;;;;;;;;;;;19.80;1.00;;;;;;4925675;29;19928;-53
2023/10/13 10:49:29;;;;;;;;;;;19.80;1.00;;;;;;4919310;29;19975;-52
2023/10/13 10:51:59;;;;;;;;;;;19.90;1.00;;;;;;4925113;29;19927;-54
2023/10/13 10:54:31;;;;;;;;;;;19.90;1.00;;;;;;4920925;29;20413;-52
2023/10/13 10:57:11;;;;;;;;;;;19.90;1.00;;;;;;4919474;29;19927;-55
2023/10/13 10:59:39;;;;;;;;;;;19.90;1.00;;;;;;4919314;29;19927;-54
2023/10/13 11:02:07;;;;;;;;;;;19.90;1.00;;;;;;4918988;29;19975;-51
2023/10/13 11:04:34;;;;;;;;;;;19.90;1.00;;;;;;4919041;29;19935;-50
2023/10/13 11:07:01;;;;;;;;;;;19.80;1.00;;;;;;4919311;29;19960;-54
2023/10/13 11:09:31;;;;;;;;;;;19.90;1.00;;;;;;4918796;29;19974;-54
2023/10/13 11:12:15;;;;;;;;;;;19.90;1.00;;;;;;4918996;29;19981;-52
2023/10/13 11:14:43;;;;;;;;;;;19.90;1.00;;;;;;4919051;29;19931;-53
2023/10/13 11:17:26;;;;;;;;;;;19.90;1.00;;;;;;4902159;29;19927;-54
2023/10/13 11:19:52;;;;;;;;;;;19.90;1.00;;;;;;4931688;29;19997;-52
2023/10/13 11:22:31;;;;;;;;;;;19.90;1.00;;;;;;4937725;29;19926;-54
2023/10/13 11:24:59;;;;;;;;;;;19.90;1.00;;;;;;4938246;29;20321;-50
2023/10/13 11:27:44;;;;;;;;;;;19.90;1.00;;;;;;4937769;29;19927;-54
2023/10/13 11:30:15;;;;;;;;;;;19.90;1.00;;;;;;4937578;29;19930;-49
2023/10/13 11:32:42;;;;;;;;;;;19.90;1.00;;;;;;4937527;29;20418;-48
2023/10/13 11:35:20;;;;;;;;;;;19.90;1.00;;;;;;4937783;29;19927;-49
2023/10/13 11:37:56;;;;;;;;;;;19.90;1.00;;;;;;4937705;29;20482;-52
2023/10/13 11:43:15;;;;;;;;;;;19.90;1.00;;;;;;4937485;29;19926;-50
2023/10/13 11:48:36;;;;;;;;;;;19.90;1.00;;;;;;4937399;29;19965;-49
2023/10/13 11:51:07;;;;;;;;;;;19.90;1.00;;;;;;4937248;29;19927;-51
2023/10/13 11:53:37;;;;;;;;;;;19.90;1.00;;;;;;4937302;29;20005;-52
2023/10/13 11:56:10;;;;;;;;;;;19.90;1.00;;;;;;4937400;29;19926;-50
2023/10/13 11:58:38;;;;;;;;;;;19.90;1.00;;;;;;4937360;29;19962;-53
2023/10/13 12:01:20;;;;;;;;;;;19.90;1.00;;;;;;4937045;29;20360;-50
2023/10/13 12:11:48;;;;;;;;;;;19.90;1.00;;;;;;4936821;29;19927;-50
2023/10/13 12:14:37;;;;;;;;;;;19.90;1.00;;;;;;4936808;29;20021;-49
2023/10/13 12:17:10;;;;;;;;;;;19.90;1.00;;;;;;4917381;29;20430;-49
2023/10/13 12:19:38;;;;;;;;;;;20.00;1.00;;;;;;4917902;29;19931;-50
2023/10/13 12:22:09;;;;;;;;;;;20.00;1.00;;;;;;4917829;29;19927;-50
2023/10/13 12:27:03;;;;;;;;;;;20.00;1.00;;;;;;4917954;29;20026;-51
2023/10/13 12:29:30;;;;;;;;;;;19.90;1.00;;;;;;4917572;29;19928;-48
2023/10/13 12:32:11;;;;;;;;;;;20.00;1.00;;;;;;4917377;29;19998;-48
2023/10/13 12:51:20;;;;;;;;;;;20.00;1.00;;;;;;4917055;29;19933;-50
2023/10/13 12:53:49;;;;;;;;;;;19.90;1.00;;;;;;4917301;29;19931;-48
2023/10/13 12:56:16;;;;;;;;;;;20.00;1.00;;;;;;4917245;29;19973;-50
2023/10/13 12:58:52;;;;;;;;;;;19.90;1.00;;;;;;4917047;29;19927;-49
2023/10/13 13:01:23;;;;;;;;;;;20.00;1.00;;;;;;4916951;29;19974;-48
2023/10/13 13:03:50;;;;;;;;;;;19.90;1.00;;;;;;4916996;29;19927;-50
2023/10/13 13:06:17;;;;;;;;;;;20.00;1.00;;;;;;4916791;29;19927;-49
2023/10/13 13:08:44;;;;;;;;;;;20.00;1.00;;;;;;4916889;29;19927;-48
2023/10/13 13:11:11;;;;;;;;;;;20.00;1.00;;;;;;4916703;29;20500;-51
2023/10/13 13:13:38;;;;;;;;;;;20.00;1.00;;;;;;4916831;29;20338;-50
2023/10/13 13:16:05;;;;;;;;;;;20.00;1.00;;;;;;4916564;29;19927;-49
2023/10/13 13:18:31;;;;;;;;;;;20.00;1.00;;;;;;4916739;29;19938;-49
2023/10/13 13:21:00;;;;;;;;;;;20.00;1.00;;;;;;4916602;29;19998;-50
2023/10/13 13:23:27;;;;;;;;;;;20.00;1.00;;;;;;4916666;29;19944;-49
2023/10/13 13:25:56;;;;;;;;;;;20.00;1.00;;;;;;4916756;29;19934;-50
2023/10/13 13:28:24;;;;;;;;;;;20.00;1.00;;;;;;4916615;29;19974;-49
2023/10/13 13:30:54;;;;;;;;;;;20.00;1.00;;;;;;4916368;29;19931;-50
2023/10/13 13:33:25;;;;;;;;;;;20.00;1.00;;;;;;4916362;29;19931;-49
2023/10/13 13:35:59;;;;;;;;;;;20.00;1.00;;;;;;4916501;29;19927;-55
2023/10/13 13:38:32;;;;;;;;;;;20.00;1.00;;;;;;4916447;29;20405;-49
2023/10/13 13:41:01;;;;;;;;;;;20.00;1.00;;;;;;4928287;29;19935;-49
2023/10/13 13:43:35;;;;;;;;;;;20.00;1.00;;;;;;4934990;29;19961;-49
2023/10/13 13:46:02;;;;;;;;;;;20.00;1.00;;;;;;4935402;29;19927;-48
2023/10/13 13:48:30;;;;;;;;;;;20.00;1.00;;;;;;4935176;29;19943;-49
2023/10/13 13:51:04;;;;;;;;;;;20.00;1.00;;;;;;4927096;29;19926;-49
2023/10/13 13:53:37;;;;;;;;;;;20.00;1.00;;;;;;4932364;29;19935;-50
2023/10/13 13:56:04;;;;;;;;;;;20.00;1.00;;;;;;4921960;29;20296;-49
2023/10/13 13:58:31;;;;;;;;;;;20.00;1.00;;;;;;4919345;29;20048;-50
2023/10/13 14:01:11;;;;;;;;;;;20.00;1.00;;;;;;4916206;29;19934;-49
2023/10/13 14:03:44;;;;;;;;;;;20.00;1.00;;;;;;4916115;29;19935;-49
2023/10/13 14:06:20;;;;;;;;;;;20.10;1.00;;;;;;4916225;29;19938;-48
2023/10/13 14:08:56;;;;;;;;;;;20.00;1.00;;;;;;4916356;29;20342;-48
2023/10/13 14:16:53;;;;;;;;;;;20.00;1.00;;;;;;4923195;29;19985;-48
2023/10/13 14:19:29;;;;;;;;;;;20.10;1.00;;;;;;4935576;29;19927;-50
2023/10/13 14:21:57;;;;;;;;;;;20.00;1.00;;;;;;4935439;29;19927;-52
2023/10/13 14:24:27;;;;;;;;;;;20.00;1.00;;;;;;4938034;29;20413;-52
2023/10/13 14:26:55;;;;;;;;;;;20.00;1.00;;;;;;4938066;29;19978;-49
2023/10/13 14:29:26;;;;;;;;;;;20.10;1.00;;;;;;4934881;29;19934;-51
2023/10/13 14:31:53;;;;;;;;;;;20.10;1.00;;;;;;4933600;29;19927;-54
2023/10/13 14:34:21;;;;;;;;;;;20.10;1.00;;;;;;4933786;29;19926;-54
2023/10/13 14:36:49;;;;;;;;;;;20.10;1.00;;;;;;4935546;29;19926;-54
2023/10/13 14:39:15;;;;;;;;;;;20.10;1.00;;;;;;4919936;29;19985;-53
2023/10/13 14:41:42;;;;;;;;;;;20.10;1.00;;;;;;4937436;29;19945;-50
2023/10/13 14:44:12;;;;;;;;;;;20.10;1.00;;;;;;4931721;29;20009;-52
2023/10/13 14:46:39;;;;;;;;;;;20.10;1.00;;;;;;4938429;29;19962;-52
2023/10/13 14:49:06;;;;;;;;;;;20.10;1.00;;;;;;4938225;29;19926;-48
2023/10/13 14:51:39;;;;;;;;;;;20.10;1.00;;;;;;4938223;29;19926;-49
2023/10/13 14:54:06;;;;;;;;;;;20.10;1.00;;;;;;4938405;29;20424;-50
2023/10/13 14:56:32;;;;;;;;;;;20.10;1.00;;;;;;4938475;29;19937;-49
2023/10/13 14:58:59;;;;;;;;;;;20.10;1.00;;;;;;4938052;29;20332;-49
2023/10/13 15:01:26;;;;;;;;;;;20.10;1.00;;;;;;4937788;29;20066;-48
2023/10/13 15:03:55;;;;;;;;;;;20.10;1.00;;;;;;4935449;29;19990;-52
2023/10/13 15:06:28;;;;;;;;;;;20.10;1.00;;;;;;4938115;29;20009;-48
2023/10/13 15:08:59;;;;;;;;;;;20.10;1.00;;;;;;4936856;29;20404;-48
2023/10/13 15:11:27;;;;;;;;;;;20.10;1.00;;;;;;4930545;29;20017;-49
2023/10/13 15:13:53;;;;;;;;;;;20.10;1.00;;;;;;4935016;29;19926;-49
2023/10/13 15:16:22;;;;;;;;;;;20.10;1.00;;;;;;4923031;29;19934;-50
2023/10/13 15:18:53;;;;;;;;;;;20.10;1.00;;;;;;4917924;29;20297;-50
2023/10/13 15:21:21;;;;;;;;;;;20.10;1.00;;;;;;4917606;29;19927;-49
2023/10/13 15:23:48;;;;;;;;;;;20.10;1.00;;;;;;4918683;29;20300;-49
2023/10/13 15:26:15;;;;;;;;;;;20.10;1.00;;;;;;4925560;29;19933;-47
2023/10/13 15:28:48;;;;;;;;;;;20.10;1.00;;;;;;4937252;29;19927;-47
2023/10/13 15:34:06;;;;;;;;;;;20.10;1.00;;;;;;4937414;29;19938;-47
2023/10/13 15:36:34;;;;;;;;;;;20.10;1.00;;;;;;4937799;29;19934;-47
2023/10/13 15:39:01;;;;;;;;;;;20.10;1.00;;;;;;4930654;29;20195;-47
2023/10/13 15:41:29;;;;;;;;;;;20.10;1.00;;;;;;4918396;29;19927;-48
2023/10/13 15:43:55;;;;;;;;;;;20.20;1.00;;;;;;4918172;29;19927;-50
2023/10/13 15:46:22;;;;;;;;;;;20.10;1.00;;;;;;4918505;29;19934;-48
2023/10/13 15:49:12;;;;;;;;;;;20.10;1.00;;;;;;4929976;29;20880;-47
2023/10/13 15:51:41;;;;;;;;;;;20.10;1.00;;;;;;4921337;29;19931;-50
2023/10/13 15:54:14;;;;;;;;;;;20.20;1.00;;;;;;4918255;29;19975;-47
2023/10/13 15:56:45;;;;;;;;;;;20.10;1.00;;;;;;4929509;29;19927;-49
2023/10/13 15:59:12;;;;;;;;;;;20.20;1.00;;;;;;4937215;29;19966;-47
2023/10/13 16:01:39;;;;;;;;;;;20.20;1.00;;;;;;4937083;29;19931;-47
2023/10/13 16:04:18;;;;;;;;;;;20.20;1.00;;;;;;4937060;29;19970;-47
2023/10/13 16:06:46;;;;;;;;;;;20.20;1.00;;;;;;4936915;29;19953;-47
2023/10/13 16:09:14;;;;;;;;;;;20.20;1.00;;;;;;4934723;29;19962;-49
2023/10/13 16:11:42;;;;;;;;;;;20.20;1.00;;;;;;4920119;29;19931;-47
2023/10/13 16:14:15;;;;;;;;;;;20.20;1.00;;;;;;4917935;29;19965;-47
2023/10/13 16:16:49;;;;;;;;;;;20.20;1.00;;;;;;4918346;29;20413;-49
2023/10/13 16:19:25;;;;;;;;;;;20.20;1.00;;;;;;4929764;29;20422;-47
2023/10/13 16:21:53;;;;;;;;;;;20.20;1.00;;;;;;4927332;29;19962;-47
2023/10/13 16:24:20;;;;;;;;;;;20.20;1.00;;;;;;4926983;29;19933;-46
2023/10/13 16:26:49;;;;;;;;;;;20.20;1.00;;;;;;4929822;29;19941;-46
2023/10/13 16:29:16;;;;;;;;;;;20.20;1.00;;;;;;4930862;29;19931;-46
2023/10/13 16:31:45;;;;;;;;;;;20.20;1.00;;;;;;4930428;29;19945;-50
2023/10/13 16:34:15;;;;;;;;;;;20.20;1.00;;;;;;4929091;29;20499;-46
2023/10/13 16:36:43;;;;;;;;;;;20.20;1.00;;;;;;4931983;29;19958;-47
2023/10/13 16:39:10;;;;;;;;;;;20.20;1.00;;;;;;4928992;29;19931;-47
2023/10/13 16:41:37;;;;;;;;;;;20.20;1.00;;;;;;4928732;29;19934;-47
2023/10/13 16:44:09;;;;;;;;;;;20.20;1.00;;;;;;4924888;29;19927;-49
2023/10/13 16:46:36;;;;;;;;;;;20.20;1.00;;;;;;4922279;29;19927;-48
2023/10/13 16:49:03;;;;;;;;;;;20.20;1.00;;;;;;4931791;29;19934;-47
2023/10/13 16:51:30;;;;;;;;;;;20.20;1.00;;;;;;4930817;29;20018;-46
2023/10/13 16:53:58;;;;;;;;;;;20.30;1.00;;;;;;4932157;29;20370;-48
2023/10/13 16:56:25;;;;;;;;;;;20.20;1.00;;;;;;4927114;29;19934;-48
2023/10/13 16:58:54;;;;;;;;;;;20.20;1.00;;;;;;4921378;29;20003;-48
2023/10/13 17:01:24;;;;;;;;;;;20.20;1.00;;;;;;4923315;29;19931;-46
2023/10/13 17:03:51;;;;;;;;;;;20.20;1.00;;;;;;4929923;29;20316;-46
2023/10/13 17:06:18;;;;;;;;;;;20.20;1.00;;;;;;4935758;29;19997;-48
2023/10/13 17:08:45;;;;;;;;;;;20.20;1.00;;;;;;4930638;29;19954;-47
2023/10/13 17:11:13;;;;;;;;;;;20.30;1.00;;;;;;4931050;29;19942;-46
2023/10/13 17:13:41;;;;;;;;;;;20.20;1.00;;;;;;4934317;29;20405;-50
2023/10/13 17:16:17;;;;;;;;;;;20.30;1.00;;;;;;4931799;29;19935;-50
2023/10/13 17:18:44;;;;;;;;;;;20.20;1.00;;;;;;4932234;29;19927;-49
2023/10/13 17:21:18;;;;;;;;;;;20.30;1.00;;;;;;4928337;29;20332;-47
2023/10/13 17:23:46;;;;;;;;;;;20.30;1.00;;;;;;4936009;29;20296;-47
2023/10/13 17:26:13;;;;;;;;;;;20.30;1.00;;;;;;4932185;29;19931;-48
2023/10/13 17:28:40;;;;;;;;;;;20.30;1.00;;;;;;4935741;29;20295;-50
2023/10/13 17:31:08;;;;;;;;;;;20.30;1.00;;;;;;4935530;29;19997;-48
2023/10/13 17:33:38;;;;;;;;;;;20.30;1.00;;;;;;4935718;29;19927;-48
2023/10/13 17:36:10;;;;;;;;;;;20.30;1.00;;;;;;4935692;29;19926;-51
2023/10/13 17:38:37;;;;;;;;;;;20.30;1.00;;;;;;4935759;29;19927;-49
2023/10/13 17:41:04;;;;;;;;;;;20.30;1.00;;;;;;4935423;29;19933;-49
2023/10/13 17:43:35;;;;;;;;;;;20.30;1.00;;;;;;4935602;29;19931;-49
2023/10/13 17:46:06;;;;;;;;;;;20.30;1.00;;;;;;4935730;29;19953;-49
2023/10/13 17:48:34;;;;;;;;;;;20.30;1.00;;;;;;4935628;29;19930;-47
2023/10/13 17:51:08;;;;;;;;;;;20.30;1.00;;;;;;4934904;29;19966;-49
2023/10/13 17:53:37;;;;;;;;;;;20.30;1.00;;;;;;4936469;29;20344;-47
2023/10/13 17:56:05;;;;;;;;;;;20.30;1.00;;;;;;4935569;29;19926;-48
2023/10/13 17:58:32;;;;;;;;;;;20.30;1.00;;;;;;4935782;29;20021;-51
2023/10/13 18:01:04;;;;;;;;;;;20.30;1.00;;;;;;4935068;29;19927;-49